Time;durP1;ratioP1;P1;durP2;ratioP2;P2;SDS_P1;SDS_P2;PMS_P1;PMS_P2;Temp;Humidity;BMP_temperature;BMP_pressure;BME280_temperature;BME280_humidity;BME280_pressure;Samples;Min_cycle;Max_cycle;Signal;HPM_P1;HPM_P2
2021/12/28 00:01:25;;;;;;;26.02;15.35;;;4.30;99.90;;;;;;5033899;28;20055;-80
2021/12/28 00:03:52;;;;;;;24.67;15.23;;;4.30;99.90;;;;;;5040070;28;20056;-80
2021/12/28 00:06:19;;;;;;;25.15;15.88;;;4.30;99.90;;;;;;5013864;28;20061;-79
2021/12/28 00:08:44;;;;;;;25.60;16.40;;;4.30;99.90;;;;;;5031046;28;20053;-80
2021/12/28 00:11:11;;;;;;;25.50;15.35;;;4.30;99.90;;;;;;5031527;28;20119;-79
2021/12/28 00:13:39;;;;;;;25.75;15.80;;;4.30;99.90;;;;;;5030549;28;20080;-79
2021/12/28 00:18:35;;;;;;;26.08;16.27;;;4.40;99.90;;;;;;5030826;28;20057;-79
2021/12/28 00:21:05;;;;;;;29.40;17.55;;;4.40;99.90;;;;;;5031431;28;20373;-83
2021/12/28 00:23:37;;;;;;;27.98;16.65;;;4.40;99.90;;;;;;5029713;28;20137;-84
2021/12/28 00:26:05;;;;;;;29.13;17.48;;;4.40;99.90;;;;;;5029311;28;20091;-85
2021/12/28 00:28:31;;;;;;;31.00;18.40;;;4.40;99.90;;;;;;5031401;28;20053;-85
2021/12/28 00:30:57;;;;;;;28.58;18.08;;;4.50;99.90;;;;;;5031261;28;20100;-85
2021/12/28 00:33:25;;;;;;;29.08;18.00;;;4.40;99.90;;;;;;5012246;28;20119;-85
2021/12/28 00:35:51;;;;;;;32.92;18.95;;;4.50;99.90;;;;;;5047652;28;20507;-85
2021/12/28 00:38:22;;;;;;;29.70;18.17;;;4.50;99.90;;;;;;5050637;28;20132;-85
2021/12/28 00:40:54;;;;;;;25.85;17.67;;;4.50;99.90;;;;;;5050992;28;20491;-85
2021/12/28 00:43:20;;;;;;;31.77;19.65;;;4.50;99.90;;;;;;5051129;28;20049;-84
2021/12/28 00:45:47;;;;;;;32.38;20.20;;;4.50;99.90;;;;;;5050854;28;20044;-85
2021/12/28 00:48:13;;;;;;;33.05;20.55;;;4.50;99.90;;;;;;5049953;28;20052;-82
2021/12/28 00:50:39;;;;;;;34.35;20.45;;;4.60;99.90;;;;;;5049544;28;20061;-82
2021/12/28 00:53:05;;;;;;;44.97;24.15;;;4.60;99.90;;;;;;5033703;28;20048;-85
2021/12/28 00:55:31;;;;;;;45.65;24.10;;;4.70;99.90;;;;;;5051956;28;20182;-84
2021/12/28 00:57:57;;;;;;;45.25;25.40;;;4.70;99.90;;;;;;5051798;28;20114;-84
2021/12/28 01:00:30;;;;;;;45.38;25.75;;;4.80;99.90;;;;;;5033053;28;20509;-83
2021/12/28 01:02:58;;;;;;;44.30;25.50;;;4.90;99.90;;;;;;5033223;28;20116;-85
2021/12/28 01:05:25;;;;;;;53.75;27.60;;;4.90;99.90;;;;;;5050709;28;20068;-85
2021/12/28 01:07:51;;;;;;;51.03;27.20;;;4.90;99.90;;;;;;5033366;28;20387;-86
2021/12/28 01:10:21;;;;;;;50.80;28.23;;;5.00;99.90;;;;;;5032327;28;20136;-84
2021/12/28 01:12:49;;;;;;;51.85;27.95;;;5.00;99.90;;;;;;5032937;28;20049;-83
2021/12/28 01:15:16;;;;;;;57.70;28.92;;;5.00;99.90;;;;;;5049231;28;20055;-83
2021/12/28 01:17:42;;;;;;;52.92;29.58;;;5.10;99.90;;;;;;5050781;28;20052;-84
2021/12/28 01:20:09;;;;;;;61.28;29.80;;;5.10;99.90;;;;;;5050872;28;20051;-83
2021/12/28 01:22:36;;;;;;;56.35;28.95;;;5.10;99.90;;;;;;5050775;28;20044;-83
2021/12/28 01:25:02;;;;;;;56.28;28.98;;;5.10;99.90;;;;;;5050188;28;20087;-83
2021/12/28 01:27:28;;;;;;;62.63;29.38;;;5.10;99.90;;;;;;5032885;28;20454;-83
2021/12/28 01:29:54;;;;;;;52.83;27.10;;;5.10;99.90;;;;;;5050830;28;20049;-84
2021/12/28 01:32:19;;;;;;;58.53;30.17;;;5.20;99.90;;;;;;5050428;28;20140;-82
2021/12/28 01:34:45;;;;;;;69.93;31.58;;;5.20;99.90;;;;;;5050370;28;20475;-83
2021/12/28 01:37:11;;;;;;;64.38;30.08;;;5.20;99.90;;;;;;5050723;28;20041;-84
2021/12/28 01:39:38;;;;;;;74.22;32.95;;;5.20;99.90;;;;;;5050693;28;20045;-84
2021/12/28 01:42:06;;;;;;;58.42;30.52;;;5.20;99.90;;;;;;5050549;28;20080;-83
2021/12/28 01:44:34;;;;;;;54.25;30.13;;;5.30;99.90;;;;;;5049650;28;20075;-84
2021/12/28 01:47:00;;;;;;;73.72;30.88;;;5.30;99.90;;;;;;5050620;28;20128;-83
2021/12/28 01:49:26;;;;;;;55.58;28.63;;;5.30;99.90;;;;;;5050673;28;20131;-81
2021/12/28 01:51:52;;;;;;;69.18;31.15;;;5.30;99.90;;;;;;5049334;28;20045;-82
2021/12/28 01:54:18;;;;;;;80.50;33.88;;;5.40;99.90;;;;;;5050351;28;20048;-82
2021/12/28 01:56:46;;;;;;;67.15;31.65;;;5.40;99.90;;;;;;5049997;28;20044;-83
2021/12/28 01:59:17;;;;;;;69.93;31.10;;;5.30;99.90;;;;;;5050450;28;20037;-83
2021/12/28 02:01:43;;;;;;;67.80;32.13;;;5.40;99.90;;;;;;5032776;28;20072;-81
2021/12/28 02:04:29;;;;;;;60.35;31.42;;;5.30;99.90;;;;;;5050018;28;20055;-83
2021/12/28 02:06:55;;;;;;;;;;;5.40;99.90;;;;;;5052494;28;20131;-83
2021/12/28 02:09:21;;;;;;;66.80;30.75;;;5.40;99.90;;;;;;5052701;28;20435;-83
2021/12/28 02:11:47;;;;;;;65.00;31.73;;;5.40;99.90;;;;;;5053834;28;20052;-83
2021/12/28 02:14:13;;;;;;;71.80;33.40;;;5.40;99.90;;;;;;5053617;28;20041;-80
2021/12/28 02:16:42;;;;;;;78.80;32.53;;;5.40;99.90;;;;;;5053698;28;20136;-83
2021/12/28 02:19:11;;;;;;;60.42;31.30;;;5.40;99.90;;;;;;5053676;28;20044;-83
2021/12/28 02:21:38;;;;;;;67.60;30.70;;;6.00;99.90;;;;;;5051963;28;20060;-82
2021/12/28 02:24:06;;;;;;;79.10;33.20;;;5.40;99.90;;;;;;5053537;28;20550;-82
2021/12/28 02:26:33;;;;;;;69.30;31.83;;;5.40;99.90;;;;;;5053831;28;20052;-85
2021/12/28 02:28:59;;;;;;;65.70;32.97;;;5.40;99.90;;;;;;5051793;28;20052;-83
2021/12/28 02:31:26;;;;;;;71.57;32.10;;;5.40;99.90;;;;;;5052057;28;20048;-84
2021/12/28 02:33:53;;;;;;;101.25;35.67;;;5.40;99.90;;;;;;5072384;28;20506;-87
2021/12/28 02:36:19;;;;;;;57.25;31.10;;;5.50;99.90;;;;;;5073287;28;20169;-84
2021/12/28 02:38:46;;;;;;;63.60;32.15;;;5.50;99.90;;;;;;5073587;28;20044;-85
2021/12/28 02:41:12;;;;;;;65.65;31.35;;;5.50;99.90;;;;;;5071977;28;20044;-84
2021/12/28 02:43:40;;;;;;;84.65;33.45;;;5.70;99.90;;;;;;5073177;28;20055;-86
2021/12/28 02:46:08;;;;;;;60.25;30.20;;;5.50;99.90;;;;;;5071078;28;20040;-84
2021/12/28 02:48:35;;;;;;;92.38;32.55;;;5.50;99.90;;;;;;5073256;28;20052;-84
2021/12/28 02:51:13;;;;;;;62.85;32.85;;;5.50;99.90;;;;;;5073162;28;20410;-85
2021/12/28 02:53:39;;;;;;;58.83;30.27;;;5.60;99.90;;;;;;5055012;28;20101;-84
2021/12/28 02:56:06;;;;;;;72.03;32.22;;;5.60;99.90;;;;;;5073084;28;20437;-84
2021/12/28 02:58:34;;;;;;;86.35;33.83;;;5.60;99.90;;;;;;5073162;28;20049;-85
2021/12/28 03:01:09;;;;;;;87.28;34.00;;;5.60;99.90;;;;;;5055149;28;20120;-85
2021/12/28 03:03:35;;;;;;;;;;;5.60;99.90;;;;;;5056190;28;20402;-86
2021/12/28 03:06:03;;;;;;;61.25;30.77;;;5.60;99.90;;;;;;5052926;28;19924;-85
2021/12/28 03:08:30;;;;;;;100.45;34.53;;;5.60;99.90;;;;;;5053107;28;20402;-85
2021/12/28 03:10:57;;;;;;;82.47;32.08;;;5.70;99.90;;;;;;5052606;28;20049;-83
2021/12/28 03:13:30;;;;;;;88.85;35.40;;;5.70;99.90;;;;;;5052774;28;20570;-86
2021/12/28 03:15:56;;;;;;;87.05;35.13;;;5.70;99.90;;;;;;5052188;28;20049;-85
2021/12/28 03:18:22;;;;;;;77.13;34.13;;;5.70;99.90;;;;;;5052469;28;20049;-83
2021/12/28 03:20:48;;;;;;;73.43;33.42;;;5.70;99.90;;;;;;5052696;28;20570;-86
2021/12/28 03:23:17;;;;;;;76.30;32.15;;;5.80;99.90;;;;;;5052046;28;20087;-85
2021/12/28 03:25:42;;;;;;;81.13;33.42;;;5.90;99.90;;;;;;5052412;28;20181;-84
2021/12/28 03:28:14;;;;;;;73.55;35.53;;;5.80;99.90;;;;;;5052529;28;20437;-87
2021/12/28 03:30:40;;;;;;;84.68;35.25;;;5.80;99.90;;;;;;5052063;28;20045;-85
2021/12/28 03:33:05;;;;;;;88.63;35.60;;;5.80;99.90;;;;;;5038955;28;20107;-86
2021/12/28 03:35:31;;;;;;;86.38;36.28;;;5.90;99.90;;;;;;5032434;28;20072;-81
2021/12/28 03:37:57;;;;;;;128.15;39.45;;;5.90;99.90;;;;;;5032256;28;20045;-86
2021/12/28 03:40:23;;;;;;;88.60;37.50;;;6.00;99.90;;;;;;5031638;28;20499;-86
2021/12/28 03:42:49;;;;;;;100.15;36.60;;;6.00;99.90;;;;;;5032383;28;20053;-86
2021/12/28 03:45:14;;;;;;;82.85;34.55;;;6.00;99.90;;;;;;5014547;28;20057;-82
2021/12/28 03:47:41;;;;;;;83.97;34.38;;;6.00;99.90;;;;;;5047073;28;20056;-82
2021/12/28 03:50:08;;;;;;;86.03;33.90;;;6.10;99.90;;;;;;5030640;28;20068;-87
2021/12/28 03:52:34;;;;;;;96.05;35.35;;;6.10;99.90;;;;;;5031841;28;20560;-87
2021/12/28 03:55:00;;;;;;;82.88;35.42;;;6.60;99.90;;;;;;5030914;28;20136;-88
2021/12/28 03:57:26;;;;;;;82.07;34.20;;;6.50;99.90;;;;;;5031762;28;20374;-92
2021/12/28 03:59:52;;;;;;;69.25;31.25;;;6.10;99.90;;;;;;5031646;28;20046;-88
2021/12/28 04:02:17;;;;;;;84.82;35.13;;;6.10;99.90;;;;;;5031550;28;20053;-87
2021/12/28 04:04:43;;;;;;;87.30;33.78;;;6.50;99.90;;;;;;5031685;28;20038;-86
2021/12/28 04:07:12;;;;;;;75.80;33.20;;;6.80;99.90;;;;;;5030165;28;20049;-87
2021/12/28 04:12:20;;;;;;;72.25;30.48;;;6.10;99.90;;;;;;5011922;28;20056;-86
2021/12/28 04:14:46;;;;;;;91.90;32.95;;;6.20;99.90;;;;;;5012001;28;20052;-87
2021/12/28 04:17:11;;;;;;;76.75;33.30;;;6.20;99.90;;;;;;5011332;28;20046;-86
2021/12/28 04:19:37;;;;;;;100.93;34.42;;;6.20;99.90;;;;;;5011945;28;20094;-86
2021/12/28 04:22:03;;;;;;;95.75;32.92;;;6.70;99.90;;;;;;5012071;28;20049;-87
2021/12/28 04:24:29;;;;;;;108.88;36.42;;;6.30;99.90;;;;;;5011428;28;20487;-87
2021/12/28 04:26:55;;;;;;;84.60;32.10;;;6.30;99.90;;;;;;5033712;28;20052;-85
2021/12/28 04:29:21;;;;;;;104.82;34.05;;;6.30;99.90;;;;;;5049237;28;20049;-88
2021/12/28 04:31:46;;;;;;;90.63;34.08;;;6.90;99.90;;;;;;5033507;28;20041;-87
2021/12/28 04:34:12;;;;;;;105.15;35.15;;;7.00;99.90;;;;;;5070759;28;20097;-86
2021/12/28 04:36:38;;;;;;;86.43;33.08;;;6.50;99.90;;;;;;5053644;28;20407;-87
2021/12/28 04:39:05;;;;;;;80.97;32.58;;;6.70;99.90;;;;;;5033239;28;20041;-86
2021/12/28 04:41:31;;;;;;;93.38;33.95;;;6.40;99.90;;;;;;5017873;28;20547;-88
2021/12/28 04:44:00;;;;;;;91.60;33.13;;;6.70;99.90;;;;;;5034803;28;20080;-86
2021/12/28 04:46:26;;;;;;;73.38;31.60;;;6.40;99.90;;;;;;5053852;28;20076;-87
2021/12/28 04:48:52;;;;;;;83.68;33.95;;;6.40;99.90;;;;;;5053450;28;20371;-85
2021/12/28 04:51:17;;;;;;;100.85;34.13;;;6.40;99.90;;;;;;5054192;28;20052;-84
2021/12/28 04:53:43;;;;;;;68.05;31.85;;;6.40;99.90;;;;;;5051684;28;20071;-86
2021/12/28 04:56:10;;;;;;;90.38;33.38;;;6.40;99.90;;;;;;5049650;28;20143;-86
2021/12/28 04:58:36;;;;;;;77.93;33.03;;;6.40;99.90;;;;;;5033343;28;20511;-86
2021/12/28 05:01:01;;;;;;;83.38;34.70;;;6.50;99.90;;;;;;5050856;28;20045;-86
2021/12/28 05:03:27;;;;;;;82.13;32.50;;;6.40;99.90;;;;;;5050526;28;20416;-85
2021/12/28 05:05:53;;;;;;;87.72;33.15;;;6.50;99.90;;;;;;5031247;28;20064;-85
2021/12/28 05:08:20;;;;;;;86.60;34.60;;;6.50;99.90;;;;;;5050723;28;20131;-85
2021/12/28 05:10:47;;;;;;;86.70;35.88;;;6.50;99.90;;;;;;5051131;28;20049;-86
2021/12/28 05:13:13;;;;;;;85.07;34.17;;;6.50;99.90;;;;;;5033430;28;20041;-86
2021/12/28 05:15:42;;;;;;;77.60;33.22;;;6.50;99.90;;;;;;5050734;28;20052;-86
2021/12/28 05:18:08;;;;;;;89.85;37.00;;;6.50;99.90;;;;;;5050690;28;20045;-86
2021/12/28 05:20:33;;;;;;;94.32;36.65;;;6.50;99.90;;;;;;5050498;28;20094;-87
2021/12/28 05:22:59;;;;;;;77.95;33.83;;;6.50;99.90;;;;;;5050991;28;20562;-86
2021/12/28 05:25:25;;;;;;;88.80;33.38;;;6.80;99.90;;;;;;5032895;28;20080;-86
2021/12/28 05:27:51;;;;;;;86.88;34.58;;;6.50;99.90;;;;;;5048117;28;20494;-87
2021/12/28 05:30:17;;;;;;;73.25;33.42;;;6.50;99.90;;;;;;5050573;28;20096;-84
2021/12/28 05:32:43;;;;;;;78.43;33.45;;;6.90;99.90;;;;;;5032441;28;20049;-85
2021/12/28 05:35:09;;;;;;;77.40;31.77;;;6.60;99.90;;;;;;5032645;28;20056;-84
2021/12/28 05:37:35;;;;;;;65.40;30.08;;;6.80;99.90;;;;;;5050403;28;20053;-82
2021/12/28 05:40:01;;;;;;;67.53;30.70;;;6.50;99.90;;;;;;5037057;28;20548;-82
2021/12/28 05:42:26;;;;;;;62.03;28.20;;;6.50;99.90;;;;;;5013999;28;20117;-86
2021/12/28 05:44:52;;;;;;;57.88;28.58;;;6.50;99.90;;;;;;5016749;28;20061;-84
2021/12/28 05:47:19;;;;;;;51.70;28.10;;;6.50;99.90;;;;;;5034112;28;20053;-86
2021/12/28 05:49:45;;;;;;;58.38;27.75;;;6.50;99.90;;;;;;5016564;28;20551;-83
2021/12/28 05:52:11;;;;;;;60.00;27.02;;;6.50;99.90;;;;;;5000098;28;20135;-83
2021/12/28 05:54:37;;;;;;;55.47;26.98;;;6.80;99.90;;;;;;5016328;28;20129;-82
2021/12/28 05:57:03;;;;;;;64.30;27.77;;;6.80;99.90;;;;;;5015011;28;20412;-82
2021/12/28 05:59:29;;;;;;;55.60;25.38;;;6.50;99.90;;;;;;5016201;28;20061;-83
2021/12/28 06:01:55;;;;;;;60.78;27.55;;;6.50;99.90;;;;;;5033770;28;20044;-84
2021/12/28 06:04:21;;;;;;;55.10;25.23;;;6.40;99.90;;;;;;5034034;28;20050;-81
2021/12/28 06:06:47;;;;;;;54.85;26.75;;;6.40;99.90;;;;;;5033923;28;20041;-82
2021/12/28 06:09:13;;;;;;;54.20;25.77;;;6.40;99.90;;;;;;5033506;28;20121;-82
2021/12/28 06:11:39;;;;;;;60.47;25.30;;;6.40;99.90;;;;;;5033819;28;20417;-84
2021/12/28 06:14:05;;;;;;;51.35;25.80;;;6.40;99.90;;;;;;5033773;28;20094;-84
2021/12/28 06:16:31;;;;;;;65.93;26.13;;;6.30;99.90;;;;;;5032262;28;20049;-82
2021/12/28 06:18:56;;;;;;;52.05;24.63;;;6.40;99.90;;;;;;5033773;28;20038;-82
2021/12/28 06:21:22;;;;;;;56.55;26.73;;;6.30;99.90;;;;;;5033939;28;20053;-83
2021/12/28 06:23:48;;;;;;;53.70;23.67;;;6.30;99.90;;;;;;5033301;28;20679;-84
2021/12/28 06:26:15;;;;;;;44.47;22.95;;;6.30;99.90;;;;;;5015692;28;20049;-84
2021/12/28 06:28:41;;;;;;;46.83;23.92;;;6.20;99.90;;;;;;5023239;28;20045;-85
2021/12/28 06:31:06;;;;;;;44.15;23.42;;;6.30;99.90;;;;;;4996448;28;20072;-86
2021/12/28 06:33:32;;;;;;;44.70;22.65;;;6.20;99.90;;;;;;5019192;28;20053;-85
2021/12/28 06:35:58;;;;;;;47.65;21.70;;;6.20;99.90;;;;;;5033422;28;20160;-84
2021/12/28 06:38:23;;;;;;;41.45;21.10;;;6.20;99.90;;;;;;5033225;28;20484;-84
2021/12/28 06:40:49;;;;;;;52.00;22.35;;;6.20;99.90;;;;;;5018029;28;20042;-84
2021/12/28 06:43:15;;;;;;;41.55;21.33;;;6.10;99.90;;;;;;5033477;28;20049;-85
2021/12/28 06:45:41;;;;;;;46.00;21.73;;;6.60;99.90;;;;;;5018343;28;20369;-84
2021/12/28 06:48:07;;;;;;;41.58;20.60;;;6.10;99.90;;;;;;5033137;28;20111;-86
2021/12/28 06:50:33;;;;;;;50.22;21.38;;;6.00;99.90;;;;;;5031844;28;20436;-86
2021/12/28 06:52:59;;;;;;;40.13;20.67;;;6.00;99.90;;;;;;5032960;28;20116;-84
2021/12/28 06:55:25;;;;;;;46.83;21.13;;;6.00;99.90;;;;;;5033218;28;20041;-86
2021/12/28 06:57:50;;;;;;;39.67;19.77;;;6.60;99.90;;;;;;5033311;28;20050;-87
2021/12/28 07:00:19;;;;;;;40.40;20.23;;;5.90;99.90;;;;;;5033424;28;20396;-87
2021/12/28 07:02:45;;;;;;;42.30;18.73;;;5.90;99.90;;;;;;5018557;28;20044;-87
2021/12/28 07:05:12;;;;;;;36.28;18.73;;;6.10;99.90;;;;;;5051429;28;20491;-85
2021/12/28 07:07:38;;;;;;;34.97;18.13;;;5.90;99.90;;;;;;5052786;28;20044;-86
2021/12/28 07:10:09;;;;;;;40.17;19.08;;;5.90;99.90;;;;;;5035402;28;20052;-87
2021/12/28 07:12:35;;;;;;;39.70;19.27;;;5.80;99.90;;;;;;5033041;28;20041;-85
2021/12/28 07:15:00;;;;;;;38.13;18.30;;;5.80;99.90;;;;;;5048642;28;20064;-85
2021/12/28 07:17:27;;;;;;;44.35;18.20;;;6.30;99.90;;;;;;5052634;28;20522;-85
2021/12/28 07:19:53;;;;;;;36.72;16.92;;;6.30;99.90;;;;;;5052732;28;20076;-87
2021/12/28 07:22:19;;;;;;;39.17;17.25;;;5.80;99.90;;;;;;5052737;28;20045;-85
2021/12/28 07:24:45;;;;;;;32.60;17.42;;;5.80;99.90;;;;;;5041460;28;20047;-85
2021/12/28 07:27:11;;;;;;;37.42;16.23;;;5.80;99.90;;;;;;5047800;28;20045;-87
2021/12/28 07:29:36;;;;;;;35.88;15.55;;;5.80;99.90;;;;;;5031759;28;20484;-85
2021/12/28 07:32:03;;;;;;;30.48;15.35;;;5.80;99.90;;;;;;5038022;28;20181;-85
2021/12/28 07:34:31;;;;;;;38.65;15.43;;;5.80;99.90;;;;;;5068008;28;20167;-85
2021/12/28 07:36:57;;;;;;;34.80;15.25;;;5.80;99.90;;;;;;5054368;28;20057;-84
2021/12/28 07:39:23;;;;;;;37.95;15.45;;;5.90;99.90;;;;;;5056561;28;20043;-89
2021/12/28 07:41:48;;;;;;;32.80;13.93;;;6.00;99.90;;;;;;5056570;28;20059;-87
2021/12/28 07:44:14;;;;;;;31.85;13.82;;;6.00;99.90;;;;;;5045690;28;20040;-88
2021/12/28 07:46:40;;;;;;;36.88;13.50;;;6.00;99.90;;;;;;5052569;28;20091;-86
2021/12/28 07:49:06;;;;;;;31.92;13.88;;;6.00;99.90;;;;;;5017930;28;20511;-88
2021/12/28 07:51:32;;;;;;;33.08;14.02;;;6.00;99.90;;;;;;5034428;28;20058;-87
2021/12/28 07:53:58;;;;;;;34.00;13.57;;;6.10;99.90;;;;;;5051912;28;20090;-84
2021/12/28 07:56:23;;;;;;;32.28;13.77;;;6.10;99.90;;;;;;5051651;28;20049;-86
2021/12/28 07:58:49;;;;;;;38.88;14.35;;;6.50;99.90;;;;;;5017531;28;20483;-85
2021/12/28 08:01:15;;;;;;;33.10;13.52;;;6.10;99.90;;;;;;5052782;28;20057;-86
2021/12/28 08:03:43;;;;;;;38.80;13.35;;;6.20;99.90;;;;;;5051088;28;20052;-86
2021/12/28 08:06:08;;;;;;;35.38;12.57;;;6.20;99.90;;;;;;5042899;28;20392;-84
2021/12/28 08:08:34;;;;;;;32.75;12.93;;;6.20;99.90;;;;;;5053346;28;20060;-82
2021/12/28 08:11:00;;;;;;;35.65;11.60;;;6.20;99.90;;;;;;5027911;28;20140;-86
2021/12/28 08:13:29;;;;;;;37.05;12.60;;;6.40;99.90;;;;;;5030451;28;20080;-85
2021/12/28 08:15:55;;;;;;;27.02;11.50;;;6.20;99.90;;;;;;5033945;28;20459;-85
2021/12/28 08:18:21;;;;;;;27.38;10.90;;;6.20;99.90;;;;;;5066548;28;20072;-81
2021/12/28 08:20:47;;;;;;;26.30;11.88;;;6.20;99.90;;;;;;5051187;28;20472;-83
2021/12/28 08:23:13;;;;;;;27.83;10.93;;;6.70;99.90;;;;;;5051653;28;20396;-81
2021/12/28 08:25:39;;;;;;;26.45;11.02;;;7.00;99.90;;;;;;5051440;28;20091;-82
2021/12/28 08:28:06;;;;;;;26.50;10.88;;;6.30;99.90;;;;;;5049566;28;20049;-83
2021/12/28 08:30:36;;;;;;;35.50;11.48;;;6.30;99.90;;;;;;5050043;28;20385;-81
2021/12/28 08:33:03;;;;;;;35.28;11.45;;;6.80;99.90;;;;;;5049423;28;20064;-81
2021/12/28 08:35:29;;;;;;;33.42;11.68;;;6.30;99.90;;;;;;5052893;28;20053;-82
2021/12/28 08:37:55;;;;;;;28.02;10.80;;;6.80;99.90;;;;;;5071299;28;20375;-83
2021/12/28 08:40:20;;;;;;;36.17;10.88;;;6.30;99.90;;;;;;5071297;28;20055;-87
2021/12/28 08:42:46;;;;;;;23.80;10.52;;;6.50;99.90;;;;;;5052668;28;20048;-83
2021/12/28 08:45:12;;;;;;;29.38;10.10;;;6.70;99.90;;;;;;5064893;28;20381;-86
2021/12/28 08:47:38;;;;;;;27.35;10.43;;;6.30;99.90;;;;;;5028421;28;20084;-86
2021/12/28 08:50:07;;;;;;;28.23;11.05;;;6.40;99.90;;;;;;5031570;28;20107;-83
2021/12/28 08:52:32;;;;;;;26.73;10.77;;;6.50;99.90;;;;;;5014916;28;20061;-88
2021/12/28 08:54:58;;;;;;;28.02;10.80;;;6.50;99.90;;;;;;4994173;28;20050;-88
2021/12/28 08:57:24;;;;;;;33.15;11.40;;;6.50;99.90;;;;;;5012018;28;20229;-85
2021/12/28 08:59:50;;;;;;;30.33;11.02;;;6.50;99.90;;;;;;4994041;28;20042;-87
2021/12/28 09:02:15;;;;;;;24.42;10.70;;;7.10;99.90;;;;;;5023047;28;20068;-81
2021/12/28 09:04:43;;;;;;;25.30;9.80;;;6.60;99.90;;;;;;5014010;28;20053;-85
2021/12/28 09:07:10;;;;;;;36.35;10.45;;;6.60;99.90;;;;;;4997927;28;20052;-88
2021/12/28 09:09:36;;;;;;;29.08;9.93;;;6.90;99.90;;;;;;5014122;28;20045;-84
2021/12/28 09:12:02;;;;;;;26.92;9.95;;;7.10;99.90;;;;;;5014482;28;20116;-84
2021/12/28 09:14:27;;;;;;;29.38;9.10;;;6.70;99.90;;;;;;5031788;28;20045;-81
2021/12/28 09:16:55;;;;;;;35.58;9.30;;;6.80;99.90;;;;;;5019082;28;20065;-85
2021/12/28 09:19:20;;;;;;;26.17;8.90;;;6.80;99.90;;;;;;5002899;28;20128;-83
2021/12/28 09:21:46;;;;;;;26.35;9.18;;;6.80;99.90;;;;;;5036266;28;20079;-80
2021/12/28 09:24:12;;;;;;;24.02;9.25;;;6.80;99.90;;;;;;5018673;28;20450;-83
2021/12/28 09:26:37;;;;;;;31.58;8.93;;;6.80;99.90;;;;;;5018416;28;20045;-86
2021/12/28 09:29:03;;;;;;;26.25;8.98;;;7.10;99.90;;;;;;5017944;28;20506;-80
2021/12/28 09:31:29;;;;;;;25.10;8.07;;;6.80;99.90;;;;;;5034741;28;20056;-79
2021/12/28 09:33:55;;;;;;;25.58;8.43;;;7.30;99.90;;;;;;5012951;28;20195;-84
2021/12/28 09:36:21;;;;;;;29.02;8.82;;;6.90;99.90;;;;;;5026566;28;20053;-82
2021/12/28 09:38:47;;;;;;;27.90;8.88;;;6.90;99.90;;;;;;4997939;28;20053;-80
2021/12/28 09:41:14;;;;;;;26.38;8.65;;;6.90;99.90;;;;;;5001872;28;20092;-83
2021/12/28 09:43:40;;;;;;;23.58;8.90;;;7.40;99.90;;;;;;4961973;28;20463;-83
2021/12/28 09:46:07;;;;;;;25.73;8.80;;;7.10;99.90;;;;;;4980617;28;20085;-85
2021/12/28 09:48:33;;;;;;;25.95;8.55;;;7.10;99.90;;;;;;5014668;28;20042;-83
2021/12/28 09:50:59;;;;;;;23.10;8.88;;;7.00;99.90;;;;;;5015321;28;20510;-83
2021/12/28 09:53:25;;;;;;;24.05;8.52;;;7.60;99.90;;;;;;4996864;28;20167;-85
2021/12/28 09:55:54;;;;;;;28.73;9.32;;;7.20;99.90;;;;;;4994740;28;20103;-84
2021/12/28 09:58:20;;;;;;;20.67;8.73;;;7.10;99.90;;;;;;4994874;28;20412;-86
2021/12/28 10:00:45;;;;;;;26.05;9.45;;;7.10;99.90;;;;;;4994719;28;20113;-83
2021/12/28 10:03:11;;;;;;;32.53;9.70;;;7.10;99.90;;;;;;4993245;28;20464;-83
2021/12/28 10:05:37;;;;;;;28.70;9.25;;;7.10;99.90;;;;;;4994707;28;20046;-81
2021/12/28 10:08:05;;;;;;;26.52;8.65;;;7.10;99.90;;;;;;4994239;28;20416;-80
2021/12/28 10:10:40;;;;;;;20.50;8.77;;;7.10;99.90;;;;;;4994450;28;20046;-83
2021/12/28 10:13:16;;;;;;;17.52;7.57;;;7.20;99.90;;;;;;4994647;28;20054;-85
2021/12/28 10:15:44;;;;;;;27.15;8.35;;;7.60;99.90;;;;;;4973800;28;20614;-87
2021/12/28 10:18:11;;;;;;;23.48;8.57;;;7.80;99.90;;;;;;4994070;28;20472;-84
2021/12/28 10:20:39;;;;;;;30.33;10.02;;;7.20;99.90;;;;;;4977199;28;20047;-84
2021/12/28 10:23:10;;;;;;;24.02;8.65;;;7.20;99.90;;;;;;4993257;28;20463;-81
2021/12/28 10:25:39;;;;;;;27.98;9.55;;;7.30;99.90;;;;;;4976831;28;20404;-84
2021/12/28 10:28:12;;;;;;;23.63;9.20;;;7.30;99.90;;;;;;4993341;28;20054;-83
2021/12/28 10:30:40;;;;;;;22.33;8.93;;;7.30;99.90;;;;;;4994097;28;20370;-83
2021/12/28 10:33:10;;;;;;;20.45;8.93;;;7.30;99.90;;;;;;5002148;28;20062;-81
2021/12/28 10:35:40;;;;;;;28.40;9.07;;;7.30;99.90;;;;;;5019165;28;20050;-84
2021/12/28 10:38:09;;;;;;;20.88;8.25;;;7.30;99.90;;;;;;5033262;28;20124;-87
2021/12/28 10:40:41;;;;;;;22.90;9.55;;;7.40;99.90;;;;;;5031447;28;20053;-83
2021/12/28 10:43:18;;;;;;;25.25;9.57;;;7.30;99.90;;;;;;5033252;28;20419;-85
2021/12/28 10:45:49;;;;;;;29.48;9.40;;;7.30;99.90;;;;;;5033010;28;20091;-82
2021/12/28 10:48:23;;;;;;;22.33;10.02;;;7.30;99.90;;;;;;5030897;28;20068;-83
2021/12/28 10:51:03;;;;;;;26.70;9.47;;;7.30;99.90;;;;;;5015484;28;20045;-82
2021/12/28 10:56:30;;;;;;;22.38;8.90;;;7.40;99.90;;;;;;5032789;28;20085;-81
2021/12/28 10:58:56;;;;;;;18.23;9.55;;;7.30;99.90;;;;;;5032979;28;20124;-80
2021/12/28 11:01:23;;;;;;;17.13;8.40;;;7.40;99.90;;;;;;5019509;28;20130;-81
2021/12/28 11:03:57;;;;;;;18.85;8.35;;;7.40;99.90;;;;;;5030056;28;20048;-81
2021/12/28 11:06:28;;;;;;;17.17;8.43;;;7.40;99.90;;;;;;5030331;28;20053;-80
2021/12/28 11:08:58;;;;;;;16.17;8.80;;;7.40;99.90;;;;;;5024614;28;20034;-79
2021/12/28 11:11:25;;;;;;;20.55;8.40;;;7.40;99.90;;;;;;5023880;28;20056;-80
2021/12/28 11:13:56;;;;;;;17.02;8.38;;;7.40;99.90;;;;;;5032678;28;20124;-83
2021/12/28 11:16:26;;;;;;;15.15;8.15;;;7.40;99.90;;;;;;5032530;28;20052;-81
2021/12/28 11:18:53;;;;;;;13.55;8.18;;;7.40;99.90;;;;;;5031490;28;20127;-80
2021/12/28 11:21:31;;;;;;;21.30;8.13;;;7.40;99.90;;;;;;5032156;28;20184;-80
2021/12/28 11:24:05;;;;;;;18.30;7.65;;;7.70;99.90;;;;;;5032593;28;20108;-82
2021/12/28 11:26:39;;;;;;;18.80;7.70;;;7.50;99.90;;;;;;5032831;28;20045;-81
2021/12/28 11:29:11;;;;;;;13.33;7.67;;;7.40;99.90;;;;;;5032885;28;20120;-81
2021/12/28 11:31:43;;;;;;;15.60;7.78;;;7.90;99.90;;;;;;5015317;28;20033;-82
2021/12/28 11:34:26;;;;;;;15.30;7.50;;;7.40;99.90;;;;;;5014009;28;20057;-80
2021/12/28 11:36:54;;;;;;;15.85;7.47;;;7.50;99.90;;;;;;5032048;28;20050;-82
2021/12/28 11:39:27;;;;;;;12.63;7.38;;;7.90;99.90;;;;;;4996350;28;20057;-81
2021/12/28 11:41:55;;;;;;;12.43;7.50;;;7.50;99.90;;;;;;5032096;28;20711;-83
2021/12/28 11:44:22;;;;;;;14.73;7.43;;;7.50;99.90;;;;;;5014461;28;20108;-81
2021/12/28 11:46:49;;;;;;;12.70;7.50;;;7.50;99.90;;;;;;5030521;28;20056;-82
2021/12/28 11:49:16;;;;;;;15.88;7.75;;;7.50;99.90;;;;;;5032075;28;20138;-83
2021/12/28 11:51:46;;;;;;;13.05;7.18;;;7.50;99.90;;;;;;5031719;28;20041;-81
2021/12/28 11:54:14;;;;;;;12.98;7.47;;;7.50;99.90;;;;;;5013925;28;20061;-82
2021/12/28 11:56:50;;;;;;;12.93;7.53;;;7.50;99.90;;;;;;5031835;28;20051;-83
2021/12/28 11:59:19;;;;;;;14.25;7.30;;;7.60;99.90;;;;;;5031569;28;20060;-79
2021/12/28 12:02:12;;;;;;;12.30;7.50;;;7.80;99.90;;;;;;5032024;28;20391;-80
2021/12/28 12:04:52;;;;;;;11.00;7.45;;;7.60;99.90;;;;;;5031678;28;20047;-83
2021/12/28 12:07:24;;;;;;;12.43;7.22;;;7.90;99.90;;;;;;5013837;28;20072;-81
2021/12/28 12:09:49;;;;;;;10.95;7.78;;;7.60;99.90;;;;;;5031574;28;20037;-80
2021/12/28 12:12:33;;;;;;;12.23;7.35;;;7.60;99.90;;;;;;5031725;28;20119;-82
2021/12/28 12:15:03;;;;;;;11.35;7.45;;;7.60;99.90;;;;;;5009624;28;20060;-80
2021/12/28 12:20:55;;;;;;;11.80;7.32;;;7.60;99.90;;;;;;5092783;23;20068;-81
2021/12/28 12:23:24;;;;;;;9.60;6.70;;;8.20;99.90;;;;;;4995927;28;20083;-81
2021/12/28 12:26:09;;;;;;;12.32;6.32;;;8.10;99.90;;;;;;5004522;28;20492;-81
2021/12/28 12:28:38;;;;;;;8.35;5.75;;;7.60;99.90;;;;;;4996005;28;20127;-82
2021/12/28 12:31:07;;;;;;;9.48;6.22;;;8.10;99.90;;;;;;5024631;28;20049;-81
2021/12/28 12:33:40;;;;;;;10.43;6.10;;;7.60;99.90;;;;;;5048598;28;20052;-80
2021/12/28 12:36:08;;;;;;;13.32;6.15;;;7.70;99.90;;;;;;5045381;28;20163;-81
2021/12/28 12:38:42;;;;;;;9.77;6.30;;;7.70;99.90;;;;;;5030527;28;20041;-82
2021/12/28 12:41:15;;;;;;;11.45;7.25;;;7.70;99.90;;;;;;5028688;28;20484;-81
2021/12/28 12:44:16;;;;;;;10.63;6.60;;;7.70;99.90;;;;;;5115799;23;20009;-79
2021/12/28 12:46:47;;;;;;;10.90;6.53;;;8.00;99.90;;;;;;5048933;28;20052;-79
2021/12/28 12:49:21;;;;;;;11.35;6.53;;;7.70;99.90;;;;;;5071033;28;20052;-79
2021/12/28 12:51:58;;;;;;;10.57;6.75;;;7.70;99.90;;;;;;5070740;28;20482;-79
2021/12/28 12:54:39;;;;;;;11.98;7.15;;;7.70;99.90;;;;;;5055519;28;20044;-78